Weather at Guadix

Public forecast

Using degrees Celsius for public forecast. Weather courtesy of forecast.io.

Closest aviation weather report (METAR) to Guadix

Report is more than 6 hours old.

Closest report is Armilla Air Base, 31.6 nm (58.5 km) WSW.

2024/04/12 13:00 (retrieved 20 hours ago)

LEGA 121300Z 20011KT 160V230 CAVOK 21/06 Q1029

Closest aviation forecast (TAF) to Guadix

Forecast is more than 12 hours old.

Closest forecast is Armilla Air Base, 31.6 nm (58.5 km) WSW.

2024/04/12 12:27 (retrieved 21 hours ago)

TAF LEGA 121100Z 1212/1312 18012KT CAVOK TX25/1215Z TN07/1306Z BECMG 1300/1303 VRB03KT